Time;durP1;ratioP1;P1;durP2;ratioP2;P2;SDS_P1;SDS_P2;PMS_P1;PMS_P2;Temp;Humidity;BMP_temperature;BMP_pressure;BME280_temperature;BME280_humidity;BME280_pressure;Samples;Min_cycle;Max_cycle;Signal;HPM_P1;HPM_P2
2022/04/03 00:02:24;;;;;;;10.63;4.88;;;;;;;;;;5030788;28;20071;-82
2022/04/03 00:04:50;;;;;;;9.52;5.20;;;;;;;;;;5030593;28;20420;-82
2022/04/03 00:07:16;;;;;;;8.10;4.78;;;;;;;;;;5031196;28;20485;-82
2022/04/03 00:09:42;;;;;;;8.65;4.90;;;;;;;;;;5014201;28;20516;-82
2022/04/03 00:12:09;;;;;;;9.15;4.95;;;;;;;;;;5030804;28;20128;-82
2022/04/03 00:14:35;;;;;;;9.00;4.47;;;;;;;;;;5030714;28;20558;-82
2022/04/03 00:17:01;;;;;;;9.63;4.82;;;;;;;;;;5030674;28;20045;-82
2022/04/03 00:19:28;;;;;;;8.15;4.90;;;;;;;;;;5030379;28;20087;-82
2022/04/03 00:21:54;;;;;;;9.30;4.90;;;;;;;;;;5030762;28;20422;-82
2022/04/03 00:24:20;;;;;;;7.18;4.38;;;;;;;;;;5030648;28;20033;-82
2022/04/03 00:26:46;;;;;;;9.45;4.95;;;;;;;;;;5013013;28;20032;-82
2022/04/03 00:29:12;;;;;;;8.57;5.03;;;;;;;;;;5013712;28;20130;-82
2022/04/03 00:31:38;;;;;;;8.68;4.60;;;;;;;;;;5030519;28;20513;-82
2022/04/03 00:34:04;;;;;;;7.25;4.10;;;;;;;;;;5047038;28;20059;-82
2022/04/03 00:36:31;;;;;;;8.00;4.68;;;;;;;;;;5030658;28;20145;-82
2022/04/03 00:38:57;;;;;;;8.98;4.60;;;;;;;;;;5028840;28;20045;-82
2022/04/03 00:41:23;;;;;;;9.30;4.20;;;;;;;;;;5039675;28;20092;-82
2022/04/03 00:43:49;;;;;;;10.82;4.82;;;;;;;;;;5010970;28;20072;-82
2022/04/03 00:46:18;;;;;;;7.85;4.70;;;;;;;;;;5024730;28;20049;-82
2022/04/03 00:48:52;;;;;;;9.10;4.65;;;;;;;;;;5030224;28;20092;-82
2022/04/03 00:51:18;;;;;;;8.85;4.88;;;;;;;;;;5023123;28;20125;-82
2022/04/03 00:53:44;;;;;;;9.32;5.32;;;;;;;;;;5038544;28;20052;-82
2022/04/03 00:56:11;;;;;;;9.30;4.30;;;;;;;;;;5014444;28;20053;-82
2022/04/03 00:58:38;;;;;;;8.05;4.60;;;;;;;;;;5043107;28;20053;-82
2022/04/03 01:01:05;;;;;;;8.88;4.43;;;;;;;;;;5017601;28;20041;-82
2022/04/03 01:03:31;;;;;;;8.63;4.50;;;;;;;;;;5035598;28;20045;-82
2022/04/03 01:05:57;;;;;;;7.63;4.75;;;;;;;;;;5025237;28;20037;-82
2022/04/03 01:08:24;;;;;;;7.07;4.30;;;;;;;;;;5031003;28;20497;-82
2022/04/03 01:10:50;;;;;;;10.48;4.82;;;;;;;;;;5023357;28;20042;-82
2022/04/03 01:13:16;;;;;;;8.52;4.78;;;;;;;;;;5037158;28;20041;-82
2022/04/03 01:15:42;;;;;;;8.88;4.70;;;;;;;;;;5015921;28;20045;-82
2022/04/03 01:18:09;;;;;;;8.20;4.38;;;;;;;;;;5043114;28;20408;-82
2022/04/03 01:20:36;;;;;;;6.68;4.03;;;;;;;;;;5015967;28;20032;-82
2022/04/03 01:23:02;;;;;;;8.05;4.78;;;;;;;;;;5020732;28;20041;-82
2022/04/03 01:25:28;;;;;;;7.53;4.40;;;;;;;;;;5040595;28;20095;-82
2022/04/03 01:27:54;;;;;;;7.55;4.18;;;;;;;;;;5030263;28;20081;-82
2022/04/03 01:30:20;;;;;;;6.95;4.15;;;;;;;;;;5041185;28;20049;-82
2022/04/03 01:32:47;;;;;;;8.02;4.43;;;;;;;;;;5019293;28;20076;-82
2022/04/03 01:35:13;;;;;;;7.72;4.22;;;;;;;;;;5016980;28;20080;-82
2022/04/03 01:37:42;;;;;;;8.68;4.45;;;;;;;;;;5046364;28;20114;-82
2022/04/03 01:40:09;;;;;;;8.63;4.43;;;;;;;;;;5034915;28;20037;-82
2022/04/03 01:42:35;;;;;;;8.57;4.50;;;;;;;;;;5024980;28;20054;-82
2022/04/03 01:45:01;;;;;;;7.85;4.32;;;;;;;;;;5042929;28;20504;-81
2022/04/03 01:47:27;;;;;;;7.85;4.07;;;;;;;;;;5033776;28;20038;-82
2022/04/03 01:49:53;;;;;;;8.80;4.45;;;;;;;;;;5028929;28;20118;-81
2022/04/03 01:52:20;;;;;;;8.75;4.13;;;;;;;;;;5021320;28;20033;-82
2022/04/03 01:54:46;;;;;;;9.43;4.72;;;;;;;;;;5021576;28;20053;-82
2022/04/03 01:57:12;;;;;;;8.40;4.70;;;;;;;;;;5030064;28;20034;-81
2022/04/03 01:59:38;;;;;;;7.30;4.68;;;;;;;;;;5029191;28;20044;-81
2022/04/03 02:02:04;;;;;;;10.13;4.30;;;;;;;;;;5020485;28;20045;-81
2022/04/03 02:04:32;;;;;;;7.80;4.68;;;;;;;;;;5021858;28;20457;-81
2022/04/03 02:06:58;;;;;;;8.25;4.85;;;;;;;;;;5012102;28;20285;-81
2022/04/03 02:09:24;;;;;;;7.82;4.00;;;;;;;;;;5016819;28;20048;-81
2022/04/03 02:11:51;;;;;;;8.07;4.55;;;;;;;;;;5043049;28;20232;-81
2022/04/03 02:14:24;;;;;;;7.20;4.50;;;;;;;;;;5023716;28;20056;-81
2022/04/03 02:16:50;;;;;;;8.32;4.18;;;;;;;;;;5017363;28;20393;-81
2022/04/03 02:19:17;;;;;;;8.13;3.92;;;;;;;;;;5029302;28;20076;-81
2022/04/03 02:21:43;;;;;;;8.20;4.30;;;;;;;;;;5017113;28;20041;-82
2022/04/03 02:24:09;;;;;;;8.25;4.43;;;;;;;;;;5013562;28;20497;-82
2022/04/03 02:26:35;;;;;;;9.02;4.78;;;;;;;;;;5027560;28;20497;-82
2022/04/03 02:29:01;;;;;;;8.15;4.57;;;;;;;;;;5016310;28;20049;-81
2022/04/03 02:31:31;;;;;;;9.60;4.65;;;;;;;;;;5042558;28;20056;-81
2022/04/03 02:33:57;;;;;;;8.13;4.50;;;;;;;;;;5040362;28;20577;-81
2022/04/03 02:36:24;;;;;;;7.95;4.55;;;;;;;;;;5017671;28;20168;-81
2022/04/03 02:38:51;;;;;;;9.10;5.03;;;;;;;;;;5045427;28;20435;-81
2022/04/03 02:41:17;;;;;;;7.80;4.63;;;;;;;;;;5018794;28;20079;-81
2022/04/03 02:43:43;;;;;;;8.18;4.88;;;;;;;;;;5032119;28;20048;-81
2022/04/03 02:46:09;;;;;;;8.30;5.03;;;;;;;;;;5034478;28;20520;-81
2022/04/03 02:48:36;;;;;;;9.38;4.88;;;;;;;;;;5028405;28;20409;-81
2022/04/03 02:51:02;;;;;;;7.35;4.00;;;;;;;;;;5034727;28;20143;-81
2022/04/03 02:53:28;;;;;;;9.13;5.22;;;;;;;;;;5022742;28;20050;-81
2022/04/03 02:55:55;;;;;;;9.57;5.03;;;;;;;;;;5025771;28;20041;-81
2022/04/03 02:58:21;;;;;;;9.73;5.47;;;;;;;;;;5032365;28;20049;-81
2022/04/03 03:00:47;;;;;;;8.48;5.35;;;;;;;;;;5048772;28;20040;-81
2022/04/03 03:03:13;;;;;;;9.63;5.80;;;;;;;;;;5023412;28;20485;-81
2022/04/03 03:05:41;;;;;;;10.80;4.82;;;;;;;;;;5041491;28;20504;-82
2022/04/03 03:08:07;;;;;;;10.07;5.55;;;;;;;;;;5032325;28;20080;-81
2022/04/03 03:10:34;;;;;;;9.00;5.57;;;;;;;;;;5036166;28;20453;-81
2022/04/03 03:13:00;;;;;;;8.90;5.32;;;;;;;;;;5039974;28;20042;-81
2022/04/03 03:15:26;;;;;;;8.63;4.88;;;;;;;;;;5040781;28;20076;-81
2022/04/03 03:17:53;;;;;;;8.98;5.93;;;;;;;;;;5032027;28;20064;-81
2022/04/03 03:20:19;;;;;;;9.00;5.15;;;;;;;;;;5028751;28;20046;-81
2022/04/03 03:22:46;;;;;;;9.35;5.82;;;;;;;;;;5028241;28;20056;-81
2022/04/03 03:25:12;;;;;;;8.73;5.82;;;;;;;;;;5028824;28;20493;-81
2022/04/03 03:27:39;;;;;;;11.35;6.00;;;;;;;;;;5040459;28;20050;-81
2022/04/03 03:30:06;;;;;;;10.43;6.40;;;;;;;;;;5028500;28;20497;-81
2022/04/03 03:32:32;;;;;;;9.57;6.15;;;;;;;;;;5015491;28;20401;-81
2022/04/03 03:34:59;;;;;;;11.00;6.28;;;;;;;;;;5011523;28;20115;-81
2022/04/03 03:37:25;;;;;;;9.93;6.00;;;;;;;;;;5001545;28;20029;-81
2022/04/03 03:39:53;;;;;;;10.00;6.53;;;;;;;;;;5014237;28;20416;-81
2022/04/03 03:42:20;;;;;;;9.88;6.32;;;;;;;;;;5041238;28;20043;-81
2022/04/03 03:44:46;;;;;;;9.75;6.45;;;;;;;;;;5039247;28;20033;-81
2022/04/03 03:47:13;;;;;;;10.50;6.80;;;;;;;;;;5033377;28;20053;-81
2022/04/03 03:49:39;;;;;;;10.55;7.18;;;;;;;;;;5046850;28;20044;-81
2022/04/03 03:52:05;;;;;;;11.57;7.35;;;;;;;;;;5048708;28;20405;-81
2022/04/03 03:54:32;;;;;;;10.80;7.88;;;;;;;;;;5038413;28;20535;-81
2022/04/03 03:56:58;;;;;;;12.95;7.43;;;;;;;;;;5042021;28;20044;-81
2022/04/03 03:59:25;;;;;;;12.35;7.68;;;;;;;;;;5029679;28;20051;-81
2022/04/03 04:01:51;;;;;;;12.30;6.88;;;;;;;;;;5032749;28;20055;-81
2022/04/03 04:04:17;;;;;;;10.65;6.97;;;;;;;;;;5047514;28;20033;-81
2022/04/03 04:06:49;;;;;;;12.30;7.32;;;;;;;;;;5034122;28;20121;-81
2022/04/03 04:09:17;;;;;;;10.95;7.30;;;;;;;;;;5044136;28;20579;-81
2022/04/03 04:11:43;;;;;;;11.52;7.53;;;;;;;;;;5034032;28;20037;-81
2022/04/03 04:14:09;;;;;;;12.48;7.47;;;;;;;;;;5037425;28;20096;-81
2022/04/03 04:16:35;;;;;;;11.52;6.82;;;;;;;;;;5041225;28;20325;-81
2022/04/03 04:19:01;;;;;;;10.68;6.40;;;;;;;;;;5031007;28;20033;-81
2022/04/03 04:21:27;;;;;;;9.65;6.40;;;;;;;;;;5042055;28;20378;-81
2022/04/03 04:23:53;;;;;;;10.10;6.57;;;;;;;;;;5033078;28;20061;-81
2022/04/03 04:26:19;;;;;;;9.50;6.70;;;;;;;;;;5040666;28;20615;-81
2022/04/03 04:28:48;;;;;;;9.52;6.70;;;;;;;;;;5046260;28;20048;-81
2022/04/03 04:31:15;;;;;;;10.55;6.68;;;;;;;;;;5032125;28;20118;-81
2022/04/03 04:33:41;;;;;;;10.02;6.68;;;;;;;;;;5038608;28;20143;-81
2022/04/03 04:36:08;;;;;;;10.55;6.38;;;;;;;;;;5040419;28;20127;-81
2022/04/03 04:38:34;;;;;;;8.88;5.90;;;;;;;;;;5030577;28;20100;-81
2022/04/03 04:41:00;;;;;;;9.48;6.18;;;;;;;;;;5042374;28;20241;-81
2022/04/03 04:43:26;;;;;;;10.45;6.75;;;;;;;;;;5035570;28;20119;-81
2022/04/03 04:45:52;;;;;;;9.98;6.40;;;;;;;;;;5034620;28;20531;-81
2022/04/03 04:48:19;;;;;;;11.88;6.53;;;;;;;;;;5042666;28;20049;-81
2022/04/03 04:50:45;;;;;;;9.85;6.03;;;;;;;;;;5030534;28;20049;-82
2022/04/03 04:53:11;;;;;;;11.38;6.20;;;;;;;;;;5039762;28;20072;-82
2022/04/03 04:55:37;;;;;;;8.95;6.47;;;;;;;;;;5038403;28;20102;-81
2022/04/03 04:58:03;;;;;;;10.60;6.35;;;;;;;;;;5032026;28;20038;-82
2022/04/03 05:00:30;;;;;;;9.43;6.18;;;;;;;;;;5044114;28;20041;-82
2022/04/03 05:03:03;;;;;;;10.18;6.43;;;;;;;;;;5027811;28;20053;-83
2022/04/03 05:05:30;;;;;;;10.88;6.53;;;;;;;;;;5027823;28;20564;-82
2022/04/03 05:07:58;;;;;;;8.95;6.45;;;;;;;;;;5027420;28;20053;-82
2022/04/03 05:10:24;;;;;;;10.43;6.00;;;;;;;;;;5046975;28;20049;-82
2022/04/03 05:12:51;;;;;;;11.13;6.47;;;;;;;;;;5042581;28;20069;-82
2022/04/03 05:15:18;;;;;;;9.38;6.38;;;;;;;;;;5042679;28;20048;-81
2022/04/03 05:17:45;;;;;;;10.48;6.32;;;;;;;;;;5035498;28;20124;-82
2022/04/03 05:20:12;;;;;;;10.32;6.03;;;;;;;;;;5047335;28;20401;-82
2022/04/03 05:22:39;;;;;;;10.25;6.18;;;;;;;;;;5034555;28;20283;-81
2022/04/03 05:25:05;;;;;;;10.25;6.70;;;;;;;;;;5014304;28;20044;-81
2022/04/03 05:27:32;;;;;;;10.30;6.78;;;;;;;;;;5062107;28;20260;-81
2022/04/03 05:29:58;;;;;;;11.75;6.90;;;;;;;;;;5034348;28;20044;-82
2022/04/03 05:32:28;;;;;;;9.32;6.18;;;;;;;;;;5044306;28;20037;-82
2022/04/03 05:34:58;;;;;;;10.68;6.35;;;;;;;;;;5041845;28;20420;-81
2022/04/03 05:37:25;;;;;;;10.20;6.03;;;;;;;;;;5051541;28;20042;-81
2022/04/03 05:39:51;;;;;;;10.05;6.43;;;;;;;;;;5041168;28;20067;-81
2022/04/03 05:42:18;;;;;;;9.90;6.47;;;;;;;;;;5043516;28;20041;-81
2022/04/03 05:44:44;;;;;;;10.23;5.82;;;;;;;;;;5030667;28;20678;-81
2022/04/03 05:47:10;;;;;;;9.75;6.68;;;;;;;;;;5045165;28;20407;-81
2022/04/03 05:49:37;;;;;;;9.23;5.93;;;;;;;;;;5034155;28;20123;-81
2022/04/03 05:52:03;;;;;;;8.93;5.78;;;;;;;;;;5043780;28;20041;-81
2022/04/03 05:54:30;;;;;;;10.10;6.63;;;;;;;;;;5040817;28;20088;-82
2022/04/03 05:56:57;;;;;;;8.73;6.22;;;;;;;;;;5035902;28;20071;-81
2022/04/03 05:59:23;;;;;;;10.95;6.63;;;;;;;;;;5046358;28;20041;-81
2022/04/03 06:01:49;;;;;;;9.13;6.75;;;;;;;;;;5035945;28;20045;-81
2022/04/03 06:04:16;;;;;;;9.43;6.70;;;;;;;;;;5050139;28;20064;-82
2022/04/03 06:06:42;;;;;;;11.52;6.85;;;;;;;;;;5036247;28;20485;-82
2022/04/03 06:09:08;;;;;;;9.20;5.90;;;;;;;;;;5046495;28;20412;-82
2022/04/03 06:11:34;;;;;;;10.52;6.10;;;;;;;;;;5035984;28;20515;-82
2022/04/03 06:14:01;;;;;;;11.15;7.15;;;;;;;;;;5040991;28;20056;-83
2022/04/03 06:16:27;;;;;;;9.85;6.82;;;;;;;;;;5030420;28;20124;-82
2022/04/03 06:18:54;;;;;;;9.70;6.60;;;;;;;;;;5047204;28;20033;-82
2022/04/03 06:21:20;;;;;;;9.70;5.93;;;;;;;;;;5045031;28;20049;-82
2022/04/03 06:23:46;;;;;;;10.55;6.65;;;;;;;;;;5029034;28;20087;-82
2022/04/03 06:26:12;;;;;;;9.68;5.93;;;;;;;;;;5029919;28;20048;-82
2022/04/03 06:28:38;;;;;;;9.88;5.88;;;;;;;;;;5045956;28;20049;-81
2022/04/03 06:31:05;;;;;;;10.70;6.40;;;;;;;;;;5033436;28;20099;-82
2022/04/03 06:33:31;;;;;;;8.68;5.32;;;;;;;;;;5041963;28;20527;-82
2022/04/03 06:35:58;;;;;;;9.40;6.28;;;;;;;;;;5041400;28;20057;-82
2022/04/03 06:38:24;;;;;;;9.25;6.30;;;;;;;;;;5033644;28;20073;-82
2022/04/03 06:40:54;;;;;;;9.35;5.88;;;;;;;;;;5045685;28;20099;-82
2022/04/03 06:43:24;;;;;;;10.43;6.88;;;;;;;;;;5033612;28;20045;-83
2022/04/03 06:45:51;;;;;;;9.40;6.13;;;;;;;;;;5012765;28;20197;-83
2022/04/03 06:48:18;;;;;;;10.77;6.90;;;;;;;;;;5045231;28;20536;-82
2022/04/03 06:50:44;;;;;;;10.73;6.03;;;;;;;;;;5045314;28;20072;-82
2022/04/03 06:53:10;;;;;;;12.15;5.75;;;;;;;;;;5036753;28;20109;-81
2022/04/03 06:55:36;;;;;;;9.90;6.22;;;;;;;;;;5031380;28;20397;-82
2022/04/03 06:58:03;;;;;;;8.85;6.38;;;;;;;;;;5027787;28;20381;-82
2022/04/03 07:00:29;;;;;;;9.95;5.50;;;;;;;;;;5046032;28;20053;-82
2022/04/03 07:02:55;;;;;;;9.77;5.30;;;;;;;;;;5036171;28;20578;-82
2022/04/03 07:05:22;;;;;;;9.07;5.70;;;;;;;;;;5049009;28;20137;-82
2022/04/03 07:07:51;;;;;;;9.65;5.78;;;;;;;;;;5049733;28;20041;-82
2022/04/03 07:10:17;;;;;;;11.30;5.60;;;;;;;;;;5032897;28;20049;-81
2022/04/03 07:12:43;;;;;;;11.13;6.07;;;;;;;;;;5042477;28;20037;-80
2022/04/03 07:15:12;;;;;;;8.70;5.40;;;;;;;;;;5039443;28;20037;-82
2022/04/03 07:17:44;;;;;;;10.13;5.72;;;;;;;;;;5034294;28;20493;-81
2022/04/03 07:20:14;;;;;;;10.65;4.90;;;;;;;;;;5045316;28;20046;-81
2022/04/03 07:22:44;;;;;;;9.05;4.78;;;;;;;;;;5036636;28;20102;-82
2022/04/03 07:25:10;;;;;;;10.55;4.78;;;;;;;;;;5048791;28;20160;-81
2022/04/03 07:27:37;;;;;;;9.10;3.90;;;;;;;;;;5032703;28;20180;-81
2022/04/03 07:30:04;;;;;;;9.40;3.53;;;;;;;;;;5032009;28;20040;-82
2022/04/03 07:32:31;;;;;;;9.15;3.85;;;;;;;;;;5040743;28;20045;-82
2022/04/03 07:34:58;;;;;;;6.55;3.20;;;;;;;;;;5039438;28;20119;-82
2022/04/03 07:37:24;;;;;;;7.47;3.60;;;;;;;;;;5032757;28;20385;-82
2022/04/03 07:39:51;;;;;;;6.47;4.07;;;;;;;;;;5044190;28;20568;-82
2022/04/03 07:42:21;;;;;;;6.35;3.40;;;;;;;;;;5052564;28;20052;-82
2022/04/03 07:44:47;;;;;;;6.65;3.53;;;;;;;;;;5036681;28;20552;-82
2022/04/03 07:47:14;;;;;;;7.88;3.33;;;;;;;;;;5043381;28;20128;-82
2022/04/03 07:49:41;;;;;;;7.88;3.05;;;;;;;;;;5031442;28;20118;-83
2022/04/03 07:52:07;;;;;;;5.43;2.80;;;;;;;;;;5040931;28;20052;-82
2022/04/03 07:54:35;;;;;;;7.22;3.30;;;;;;;;;;5029120;28;20038;-82
2022/04/03 07:57:01;;;;;;;6.38;2.85;;;;;;;;;;5043140;28;20049;-83
2022/04/03 07:59:27;;;;;;;6.45;3.38;;;;;;;;;;5031578;28;20044;-84
2022/04/03 08:01:53;;;;;;;7.72;2.97;;;;;;;;;;5040778;28;20045;-83
2022/04/03 08:04:19;;;;;;;6.10;2.97;;;;;;;;;;5039277;28;20104;-84
2022/04/03 08:06:46;;;;;;;5.78;2.50;;;;;;;;;;5033272;28;20038;-83
2022/04/03 08:09:12;;;;;;;6.75;2.50;;;;;;;;;;5041579;28;20401;-83
2022/04/03 08:11:41;;;;;;;4.00;2.33;;;;;;;;;;5041719;28;20042;-84
2022/04/03 08:14:07;;;;;;;7.70;2.80;;;;;;;;;;5038373;28;20067;-83
2022/04/03 08:16:34;;;;;;;4.60;1.85;;;;;;;;;;5048367;28;20055;-83
2022/04/03 08:19:09;;;;;;;5.47;1.60;;;;;;;;;;5030931;28;20116;-83
2022/04/03 08:21:35;;;;;;;5.75;1.83;;;;;;;;;;5040823;28;20361;-83
2022/04/03 08:24:01;;;;;;;2.63;1.55;;;;;;;;;;5038470;28;20416;-83
2022/04/03 08:26:28;;;;;;;4.82;1.73;;;;;;;;;;5033133;28;20120;-84
2022/04/03 08:28:54;;;;;;;4.00;1.55;;;;;;;;;;5045030;28;20045;-85
2022/04/03 08:31:24;;;;;;;2.47;1.30;;;;;;;;;;5035388;28;20527;-82
2022/04/03 08:33:53;;;;;;;3.42;1.60;;;;;;;;;;5038389;28;20497;-84
2022/04/03 08:36:19;;;;;;;6.95;1.60;;;;;;;;;;5029039;28;20107;-83
2022/04/03 08:38:45;;;;;;;3.13;1.42;;;;;;;;;;5030136;28;20041;-83
2022/04/03 08:41:12;;;;;;;4.85;1.63;;;;;;;;;;5041425;28;20080;-86
2022/04/03 08:43:40;;;;;;;3.80;1.70;;;;;;;;;;5038748;28;20392;-81
2022/04/03 08:46:09;;;;;;;4.38;1.85;;;;;;;;;;5034684;28;20529;-84
2022/04/03 08:48:37;;;;;;;6.55;1.63;;;;;;;;;;5037694;28;20056;-86
2022/04/03 08:51:04;;;;;;;3.42;1.60;;;;;;;;;;5047955;28;20044;-87
2022/04/03 08:53:31;;;;;;;4.68;1.60;;;;;;;;;;5045398;28;20330;-85
2022/04/03 08:55:57;;;;;;;5.88;1.80;;;;;;;;;;5040898;28;20574;-87
2022/04/03 08:58:24;;;;;;;5.10;1.50;;;;;;;;;;5069261;28;20047;-88
2022/04/03 09:00:50;;;;;;;5.20;1.42;;;;;;;;;;5056519;28;20090;-86
2022/04/03 09:03:16;;;;;;;3.63;1.42;;;;;;;;;;5045072;28;20508;-86
2022/04/03 09:05:43;;;;;;;3.45;1.30;;;;;;;;;;5049831;28;20465;-85
2022/04/03 09:08:19;;;;;;;4.97;1.10;;;;;;;;;;5035984;28;20048;-83
2022/04/03 09:11:03;;;;;;;4.90;1.40;;;;;;;;;;5041277;28;20048;-84
2022/04/03 09:13:29;;;;;;;3.55;1.20;;;;;;;;;;5042114;28;20049;-86
2022/04/03 09:15:55;;;;;;;3.33;1.25;;;;;;;;;;5052562;28;20106;-85
2022/04/03 09:18:22;;;;;;;8.30;1.40;;;;;;;;;;5048663;28;20125;-85
2022/04/03 09:20:48;;;;;;;4.97;1.20;;;;;;;;;;5043114;28;20045;-86
2022/04/03 09:23:17;;;;;;;5.90;1.58;;;;;;;;;;5041230;28;20048;-86
2022/04/03 09:25:44;;;;;;;4.15;1.33;;;;;;;;;;5050321;28;20124;-86
2022/04/03 09:28:14;;;;;;;3.35;1.20;;;;;;;;;;5036724;28;20497;-86
2022/04/03 09:30:43;;;;;;;4.97;1.20;;;;;;;;;;5034849;28;20300;-86
2022/04/03 09:33:11;;;;;;;2.97;1.10;;;;;;;;;;5020106;28;20091;-85
2022/04/03 09:35:55;;;;;;;3.60;1.15;;;;;;;;;;5052764;28;20049;-85
2022/04/03 09:38:22;;;;;;;3.90;1.13;;;;;;;;;;5057928;28;20040;-86
2022/04/03 09:40:49;;;;;;;6.07;1.40;;;;;;;;;;5054451;28;20077;-87
2022/04/03 09:43:20;;;;;;;5.38;1.25;;;;;;;;;;5039310;28;20041;-83
2022/04/03 09:45:51;;;;;;;3.05;1.15;;;;;;;;;;5035127;28;20456;-86
2022/04/03 09:48:20;;;;;;;3.05;1.30;;;;;;;;;;5042682;28;20061;-86
2022/04/03 09:51:00;;;;;;;3.85;1.60;;;;;;;;;;5041209;28;20045;-85
2022/04/03 09:53:28;;;;;;;3.95;1.40;;;;;;;;;;5049926;28;20102;-86
2022/04/03 09:55:54;;;;;;;5.35;1.60;;;;;;;;;;5042919;28;20048;-83
2022/04/03 09:58:22;;;;;;;3.30;1.50;;;;;;;;;;5037285;28;20056;-85
2022/04/03 10:00:48;;;;;;;5.03;1.60;;;;;;;;;;5028705;28;20053;-85
2022/04/03 10:03:14;;;;;;;5.97;1.88;;;;;;;;;;5045085;28;20515;-86
2022/04/03 10:05:41;;;;;;;1.77;0.90;;;;;;;;;;5032382;28;20531;-86
2022/04/03 10:08:08;;;;;;;3.20;1.00;;;;;;;;;;5040636;28;20128;-87
2022/04/03 10:10:35;;;;;;;2.78;1.10;;;;;;;;;;5053266;28;20037;-88
2022/04/03 10:13:01;;;;;;;2.95;1.05;;;;;;;;;;5032759;28;20085;-86
2022/04/03 10:15:28;;;;;;;4.07;1.02;;;;;;;;;;5032905;28;20045;-87
2022/04/03 10:17:55;;;;;;;5.50;0.90;;;;;;;;;;5037815;28;20064;-87
2022/04/03 10:20:30;;;;;;;5.25;1.13;;;;;;;;;;5048715;28;20095;-85
2022/04/03 10:23:00;;;;;;;2.30;0.90;;;;;;;;;;5047787;28;20052;-87
2022/04/03 10:25:29;;;;;;;2.22;1.00;;;;;;;;;;5035783;28;20032;-87
2022/04/03 10:28:01;;;;;;;2.60;0.90;;;;;;;;;;5051916;28;20033;-84
2022/04/03 10:30:37;;;;;;;3.03;0.70;;;;;;;;;;5052185;28;20064;-87
2022/04/03 10:33:03;;;;;;;2.15;0.80;;;;;;;;;;5030949;28;20103;-86
2022/04/03 10:35:29;;;;;;;3.55;1.13;;;;;;;;;;5035660;28;20294;-86
2022/04/03 10:38:01;;;;;;;2.55;0.90;;;;;;;;;;5029921;28;20116;-87
2022/04/03 10:40:29;;;;;;;4.47;0.90;;;;;;;;;;5032874;28;20041;-88
2022/04/03 10:42:58;;;;;;;2.33;0.80;;;;;;;;;;5045254;28;20120;-86
2022/04/03 10:45:35;;;;;;;2.50;0.68;;;;;;;;;;5030655;28;20049;-88
2022/04/03 10:48:26;;;;;;;2.55;0.73;;;;;;;;;;5031742;28;20088;-87
2022/04/03 10:51:06;;;;;;;3.80;0.80;;;;;;;;;;5033237;28;20509;-86
2022/04/03 10:53:42;;;;;;;4.00;1.13;;;;;;;;;;5052334;28;20131;-84
2022/04/03 10:56:10;;;;;;;3.15;0.90;;;;;;;;;;5051418;28;20370;-86
2022/04/03 10:58:39;;;;;;;2.80;0.80;;;;;;;;;;5035475;28;20493;-87
2022/04/03 11:01:05;;;;;;;1.30;0.63;;;;;;;;;;5041518;28;20043;-87
2022/04/03 11:03:33;;;;;;;4.78;1.20;;;;;;;;;;5029778;28;20039;-85
2022/04/03 11:06:18;;;;;;;3.92;1.30;;;;;;;;;;5047103;28;20079;-89
2022/04/03 11:08:44;;;;;;;;;;;;;;;;;;5037209;28;20041;-88
2022/04/03 11:11:10;;;;;;;3.88;1.00;;;;;;;;;;5049519;28;19924;-88
2022/04/03 11:13:37;;;;;;;3.95;1.10;;;;;;;;;;5036401;28;20049;-87
2022/04/03 11:16:08;;;;;;;3.60;0.90;;;;;;;;;;5048111;28;20500;-85
2022/04/03 11:18:35;;;;;;;2.85;1.30;;;;;;;;;;5031903;28;20095;-85
2022/04/03 11:21:20;;;;;;;3.78;1.40;;;;;;;;;;5030274;28;20037;-88
2022/04/03 11:23:47;;;;;;;2.47;1.10;;;;;;;;;;5031408;28;20098;-87
2022/04/03 11:26:13;;;;;;;5.32;1.30;;;;;;;;;;5048573;28;20040;-87
2022/04/03 11:28:41;;;;;;;2.70;1.20;;;;;;;;;;5057875;28;20037;-84
2022/04/03 11:31:07;;;;;;;4.28;1.27;;;;;;;;;;5038270;28;20071;-86
2022/04/03 11:33:33;;;;;;;3.83;1.50;;;;;;;;;;5029145;28;20477;-85
2022/04/03 11:36:09;;;;;;;3.38;1.30;;;;;;;;;;5034837;28;20131;-88
2022/04/03 11:38:42;;;;;;;4.43;1.63;;;;;;;;;;5049065;28;20400;-86
2022/04/03 11:41:13;;;;;;;5.32;1.35;;;;;;;;;;5034842;28;20041;-86
2022/04/03 11:43:42;;;;;;;4.28;1.63;;;;;;;;;;5051236;28;20143;-87
2022/04/03 11:46:08;;;;;;;5.20;1.80;;;;;;;;;;5042397;28;20596;-85
2022/04/03 11:48:50;;;;;;;4.20;1.50;;;;;;;;;;5031991;28;20049;-86
2022/04/03 11:51:19;;;;;;;3.05;1.50;;;;;;;;;;5031531;28;20052;-88
2022/04/03 11:53:47;;;;;;;3.55;1.48;;;;;;;;;;5032049;28;20044;-87
2022/04/03 11:56:13;;;;;;;4.00;1.50;;;;;;;;;;5038154;28;20445;-88
2022/04/03 11:58:41;;;;;;;4.25;1.70;;;;;;;;;;5034161;28;20037;-88
2022/04/03 12:01:07;;;;;;;3.72;1.58;;;;;;;;;;5044460;28;20562;-88
2022/04/03 12:03:35;;;;;;;2.83;1.30;;;;;;;;;;5049198;28;20041;-87
2022/04/03 12:06:14;;;;;;;3.72;1.40;;;;;;;;;;5050844;28;20348;-88
2022/04/03 12:08:41;;;;;;;4.25;1.45;;;;;;;;;;5034824;28;20060;-88
2022/04/03 12:11:19;;;;;;;3.47;1.80;;;;;;;;;;5048803;28;20051;-87
2022/04/03 12:13:45;;;;;;;3.53;1.63;;;;;;;;;;5047892;28;20041;-88
2022/04/03 12:16:21;;;;;;;4.35;1.60;;;;;;;;;;5035888;28;20072;-88
2022/04/03 12:18:54;;;;;;;2.80;1.20;;;;;;;;;;5029110;28;20103;-87
2022/04/03 12:21:20;;;;;;;2.97;1.00;;;;;;;;;;5033900;28;20045;-87
2022/04/03 12:24:13;;;;;;;2.72;0.80;;;;;;;;;;5039151;28;20038;-88
2022/04/03 12:26:40;;;;;;;1.65;0.75;;;;;;;;;;5026867;28;20076;-84
2022/04/03 12:29:07;;;;;;;1.67;0.60;;;;;;;;;;5048589;28;20045;-86
2022/04/03 12:31:34;;;;;;;1.50;0.57;;;;;;;;;;5047759;28;20516;-86
2022/04/03 12:34:06;;;;;;;1.52;0.65;;;;;;;;;;5033754;28;20463;-87
2022/04/03 12:36:43;;;;;;;0.82;0.60;;;;;;;;;;5029521;28;20388;-86
2022/04/03 12:39:28;;;;;;;1.42;0.70;;;;;;;;;;5041214;28;20048;-86
2022/04/03 12:41:54;;;;;;;;;;;;;;;;;;5039460;28;20103;-86
2022/04/03 12:44:21;;;;;;;1.13;0.60;;;;;;;;;;5026527;28;19968;-86
2022/04/03 12:46:47;;;;;;;1.02;0.60;;;;;;;;;;5047150;28;20067;-85
2022/04/03 12:49:19;;;;;;;1.63;0.50;;;;;;;;;;5037464;28;20098;-87
2022/04/03 12:51:49;;;;;;;3.75;0.75;;;;;;;;;;5040026;28;20041;-86
2022/04/03 12:54:18;;;;;;;1.52;0.50;;;;;;;;;;5030092;28;20049;-86
2022/04/03 12:59:38;;;;;;;4.50;0.85;;;;;;;;;;5049789;28;20086;-86
2022/04/03 13:02:08;;;;;;;1.58;0.52;;;;;;;;;;5028412;28;20045;-85
2022/04/03 13:04:34;;;;;;;1.77;0.70;;;;;;;;;;5042107;28;20045;-86
2022/04/03 13:07:03;;;;;;;2.50;0.52;;;;;;;;;;5036192;28;20037;-85
2022/04/03 13:09:30;;;;;;;1.65;0.82;;;;;;;;;;5048320;28;20493;-86
2022/04/03 13:11:58;;;;;;;1.50;0.70;;;;;;;;;;5029715;28;20516;-85
2022/04/03 13:14:33;;;;;;;3.78;0.90;;;;;;;;;;5045517;28;20500;-83
2022/04/03 13:17:01;;;;;;;4.43;1.27;;;;;;;;;;5037059;28;20570;-85
2022/04/03 13:19:28;;;;;;;5.60;1.50;;;;;;;;;;5027332;28;20056;-85
2022/04/03 13:21:55;;;;;;;3.08;1.27;;;;;;;;;;5043972;28;20136;-86
2022/04/03 13:24:22;;;;;;;3.83;1.10;;;;;;;;;;5026333;28;20391;-84
2022/04/03 13:26:49;;;;;;;4.15;1.52;;;;;;;;;;5029152;28;20172;-85
2022/04/03 13:29:16;;;;;;;3.55;2.17;;;;;;;;;;5029978;28;20044;-87
2022/04/03 13:31:42;;;;;;;5.45;1.50;;;;;;;;;;5043593;28;20146;-85
2022/04/03 13:34:09;;;;;;;2.38;1.33;;;;;;;;;;5029433;28;20049;-86
2022/04/03 13:36:35;;;;;;;4.65;1.52;;;;;;;;;;5030863;28;20038;-87
2022/04/03 13:39:04;;;;;;;4.28;1.40;;;;;;;;;;5044502;28;20041;-84
2022/04/03 13:41:30;;;;;;;4.68;1.60;;;;;;;;;;5050373;28;20060;-86
2022/04/03 13:43:57;;;;;;;4.22;1.65;;;;;;;;;;5036842;28;20041;-86
2022/04/03 13:46:25;;;;;;;3.90;1.33;;;;;;;;;;5049293;28;20052;-86
2022/04/03 13:48:51;;;;;;;3.47;1.45;;;;;;;;;;5036428;28;20041;-85
2022/04/03 13:51:17;;;;;;;3.60;1.13;;;;;;;;;;5047073;28;20404;-86
2022/04/03 13:53:45;;;;;;;2.03;1.10;;;;;;;;;;5049760;28;20045;-84
2022/04/03 13:56:11;;;;;;;3.58;1.20;;;;;;;;;;5039828;28;20108;-85
2022/04/03 13:58:38;;;;;;;2.58;1.20;;;;;;;;;;5029144;28;20041;-86
2022/04/03 14:01:06;;;;;;;5.28;1.90;;;;;;;;;;5044822;28;20055;-85
2022/04/03 14:03:32;;;;;;;4.85;1.40;;;;;;;;;;5033903;28;20370;-85
2022/04/03 14:05:59;;;;;;;4.07;1.60;;;;;;;;;;5040092;28;20130;-85
2022/04/03 14:08:26;;;;;;;3.60;1.48;;;;;;;;;;5041285;28;20098;-85
2022/04/03 14:10:53;;;;;;;4.03;1.60;;;;;;;;;;5032546;28;20056;-86
2022/04/03 14:13:21;;;;;;;3.90;1.70;;;;;;;;;;5042283;28;20049;-87
2022/04/03 14:15:48;;;;;;;3.17;1.65;;;;;;;;;;5037773;28;20060;-85
2022/04/03 14:18:20;;;;;;;5.95;1.70;;;;;;;;;;5035822;28;20037;-84
2022/04/03 14:20:46;;;;;;;2.72;1.40;;;;;;;;;;5045519;28;20041;-86
2022/04/03 14:23:12;;;;;;;3.65;1.40;;;;;;;;;;5033372;28;20033;-85
2022/04/03 14:25:39;;;;;;;4.43;1.92;;;;;;;;;;5039141;28;20037;-84
2022/04/03 14:28:05;;;;;;;5.07;1.95;;;;;;;;;;5024371;28;20074;-85
2022/04/03 14:30:31;;;;;;;6.00;1.70;;;;;;;;;;5032085;28;20048;-84
2022/04/03 14:32:58;;;;;;;4.63;1.88;;;;;;;;;;5043813;28;20538;-85
2022/04/03 14:35:34;;;;;;;3.58;1.77;;;;;;;;;;5037199;28;20052;-86
2022/04/03 14:38:01;;;;;;;4.28;1.52;;;;;;;;;;5043119;28;20067;-85
2022/04/03 14:40:27;;;;;;;3.15;1.30;;;;;;;;;;5032426;28;20439;-85
2022/04/03 14:42:58;;;;;;;2.53;1.13;;;;;;;;;;5043518;28;20049;-85
2022/04/03 14:45:24;;;;;;;3.05;1.20;;;;;;;;;;5027976;28;20060;-85
2022/04/03 14:47:51;;;;;;;1.98;1.10;;;;;;;;;;5028845;28;20060;-85